Time;durP1;ratioP1;P1;durP2;ratioP2;P2;SDS_P1;SDS_P2;PMS_P1;PMS_P2;Temp;Humidity;BMP_temperature;BMP_pressure;BME280_temperature;BME280_humidity;BME280_pressure;Samples;Min_cycle;Max_cycle;Signal;HPM_P1;HPM_P2
2022/10/05 00:02:14;;;;;;;59.73;3.73;;;;;;;;;;5054807;28;20452;-68
2022/10/05 00:04:42;;;;;;;60.47;4.37;;;;;;;;;;5054698;28;20463;-68
2022/10/05 00:07:13;;;;;;;60.60;5.63;;;;;;;;;;5054520;28;20798;-68
2022/10/05 00:09:40;;;;;;;59.83;3.73;;;;;;;;;;5053646;28;20549;-68
2022/10/05 00:12:13;;;;;;;64.60;5.90;;;;;;;;;;5054276;28;20456;-68
2022/10/05 00:14:40;;;;;;;58.67;3.20;;;;;;;;;;5054351;28;20510;-68
2022/10/05 00:17:07;;;;;;;59.30;3.77;;;;;;;;;;5054190;28;20487;-68
2022/10/05 00:19:36;;;;;;;61.80;3.47;;;;;;;;;;5053649;28;20452;-68
2022/10/05 00:22:10;;;;;;;59.80;3.63;;;;;;;;;;5052822;28;20450;-68
2022/10/05 00:24:37;;;;;;;58.90;3.27;;;;;;;;;;5054107;28;20448;-68
2022/10/05 00:27:13;;;;;;;60.93;3.93;;;;;;;;;;5054394;28;20471;-68
2022/10/05 00:29:40;;;;;;;58.80;3.30;;;;;;;;;;5054067;28;20970;-68
2022/10/05 00:32:09;;;;;;;60.30;3.57;;;;;;;;;;5053366;28;20453;-68
2022/10/05 00:34:36;;;;;;;59.63;4.33;;;;;;;;;;5054066;28;20460;-68
2022/10/05 00:37:05;;;;;;;58.50;3.20;;;;;;;;;;5053781;28;20486;-68
2022/10/05 00:39:32;;;;;;;59.50;3.80;;;;;;;;;;5053899;28;20456;-68
2022/10/05 00:42:09;;;;;;;58.60;3.70;;;;;;;;;;5054054;28;20454;-68
2022/10/05 00:44:40;;;;;;;58.50;3.80;;;;;;;;;;5053411;28;20448;-68
2022/10/05 00:47:10;;;;;;;58.50;3.47;;;;;;;;;;5053829;28;20555;-68
2022/10/05 00:49:45;;;;;;;59.30;3.53;;;;;;;;;;5053368;28;20455;-68
2022/10/05 00:52:20;;;;;;;59.60;3.67;;;;;;;;;;5053765;28;20451;-68
2022/10/05 00:54:50;;;;;;;60.33;4.43;;;;;;;;;;5053175;28;21014;-68
2022/10/05 00:57:24;;;;;;;58.43;3.17;;;;;;;;;;5053511;28;20499;-68
2022/10/05 00:59:56;;;;;;;59.17;3.67;;;;;;;;;;5053479;28;20459;-68
2022/10/05 01:02:26;;;;;;;60.10;4.43;;;;;;;;;;5053800;28;20475;-68
2022/10/05 01:04:56;;;;;;;58.47;3.03;;;;;;;;;;5053640;28;20479;-68
2022/10/05 01:07:29;;;;;;;59.47;3.93;;;;;;;;;;5052684;28;20807;-68
2022/10/05 01:09:59;;;;;;;59.43;3.67;;;;;;;;;;5053149;28;20459;-68
2022/10/05 01:12:32;;;;;;;59.00;3.13;;;;;;;;;;5053548;28;20455;-68
2022/10/05 01:15:03;;;;;;;59.07;3.37;;;;;;;;;;5053481;28;20537;-68
2022/10/05 01:17:33;;;;;;;60.87;3.67;;;;;;;;;;5052892;28;20570;-68
2022/10/05 01:20:11;;;;;;;59.30;3.60;;;;;;;;;;5052580;28;20451;-68
2022/10/05 01:22:50;;;;;;;59.17;3.63;;;;;;;;;;5053198;28;20948;-68
2022/10/05 01:25:21;;;;;;;58.90;3.53;;;;;;;;;;5052923;28;21002;-68
2022/10/05 01:27:58;;;;;;;59.10;3.87;;;;;;;;;;5053058;28;20466;-68
2022/10/05 01:30:26;;;;;;;58.70;3.10;;;;;;;;;;5052000;28;20463;-68
2022/10/05 01:32:58;;;;;;;58.60;3.03;;;;;;;;;;5052527;28;20444;-68
2022/10/05 01:35:31;;;;;;;61.43;5.10;;;;;;;;;;5052634;28;20828;-68
2022/10/05 01:38:00;;;;;;;60.47;3.93;;;;;;;;;;5052979;28;20716;-68
2022/10/05 01:40:32;;;;;;;59.30;3.70;;;;;;;;;;5052198;28;20453;-68
2022/10/05 01:43:04;;;;;;;59.00;3.20;;;;;;;;;;5051912;28;20447;-68
2022/10/05 01:45:37;;;;;;;58.60;3.10;;;;;;;;;;5052373;28;20472;-68
2022/10/05 01:48:08;;;;;;;58.60;3.07;;;;;;;;;;5052738;28;20825;-68
2022/10/05 01:50:39;;;;;;;59.10;3.80;;;;;;;;;;5052311;28;20453;-68
2022/10/05 01:53:11;;;;;;;59.40;3.53;;;;;;;;;;5051859;28;20826;-68
2022/10/05 01:55:41;;;;;;;58.60;3.40;;;;;;;;;;5052354;28;20492;-68
2022/10/05 01:58:18;;;;;;;60.40;4.70;;;;;;;;;;5052185;28;20582;-68
2022/10/05 02:00:49;;;;;;;60.17;5.40;;;;;;;;;;5052359;28;20542;-68
2022/10/05 02:03:19;;;;;;;59.20;4.17;;;;;;;;;;5052187;28;20448;-68
2022/10/05 02:05:48;;;;;;;58.67;3.43;;;;;;;;;;5052016;28;20526;-68
2022/10/05 02:08:18;;;;;;;58.57;4.03;;;;;;;;;;5052057;28;20440;-68
2022/10/05 02:10:46;;;;;;;58.17;3.33;;;;;;;;;;5052153;28;20456;-68
2022/10/05 02:13:17;;;;;;;60.17;4.20;;;;;;;;;;5052434;28;20460;-68
2022/10/05 02:15:45;;;;;;;59.00;4.23;;;;;;;;;;5051780;28;20479;-68
2022/10/05 02:18:14;;;;;;;58.20;3.23;;;;;;;;;;5052066;28;20887;-68
2022/10/05 02:20:43;;;;;;;62.57;4.23;;;;;;;;;;5051414;28;20448;-68
2022/10/05 02:23:12;;;;;;;58.90;3.03;;;;;;;;;;5052166;28;20948;-68
2022/10/05 02:25:41;;;;;;;59.67;4.40;;;;;;;;;;5051998;28;20476;-68
2022/10/05 02:28:10;;;;;;;58.83;3.80;;;;;;;;;;5051230;28;20854;-68
2022/10/05 02:30:42;;;;;;;59.70;3.40;;;;;;;;;;5051716;28;20460;-68
2022/10/05 02:33:11;;;;;;;59.20;3.77;;;;;;;;;;5051868;28;20474;-68
2022/10/05 02:35:38;;;;;;;58.73;3.43;;;;;;;;;;5051984;28;20841;-68
2022/10/05 02:38:09;;;;;;;59.07;4.00;;;;;;;;;;5051389;28;20488;-68
2022/10/05 02:40:40;;;;;;;59.10;3.57;;;;;;;;;;5051348;28;20459;-68
2022/10/05 02:43:12;;;;;;;58.37;2.80;;;;;;;;;;5051276;28;20459;-68
2022/10/05 02:45:45;;;;;;;59.87;3.67;;;;;;;;;;5051599;28;20479;-68
2022/10/05 02:48:15;;;;;;;60.70;3.43;;;;;;;;;;5051731;28;20531;-68
2022/10/05 02:50:48;;;;;;;58.47;3.23;;;;;;;;;;5050860;28;20448;-68
2022/10/05 02:53:19;;;;;;;58.27;3.23;;;;;;;;;;5051808;28;20456;-68
2022/10/05 02:55:51;;;;;;;58.92;3.15;;;;;;;;;;5051615;28;20464;-68
2022/10/05 02:58:21;;;;;;;60.47;4.67;;;;;;;;;;5051485;28;20233;-68
2022/10/05 03:00:53;;;;;;;58.70;3.60;;;;;;;;;;5051325;28;20463;-68
2022/10/05 03:03:24;;;;;;;59.70;3.53;;;;;;;;;;5051150;28;20819;-68
2022/10/05 03:05:54;;;;;;;59.03;3.40;;;;;;;;;;5051502;28;20550;-68
2022/10/05 03:08:24;;;;;;;58.87;3.30;;;;;;;;;;5051386;28;20220;-68
2022/10/05 03:10:56;;;;;;;59.27;3.87;;;;;;;;;;5051165;28;20456;-68
2022/10/05 03:13:27;;;;;;;58.53;2.90;;;;;;;;;;5050776;28;20448;-68
2022/10/05 03:16:03;;;;;;;58.60;3.47;;;;;;;;;;5051543;28;20831;-68
2022/10/05 03:18:40;;;;;;;60.67;3.80;;;;;;;;;;5051097;28;20494;-68
2022/10/05 03:21:13;;;;;;;58.77;3.57;;;;;;;;;;5051491;28;20866;-68
2022/10/05 03:23:48;;;;;;;59.87;4.07;;;;;;;;;;5051500;28;20532;-67
2022/10/05 03:26:22;;;;;;;59.87;4.13;;;;;;;;;;5050968;28;20478;-68
2022/10/05 03:28:54;;;;;;;59.10;3.20;;;;;;;;;;5051091;28;20448;-68
2022/10/05 03:31:26;;;;;;;58.70;3.77;;;;;;;;;;5051380;28;20457;-68
2022/10/05 03:33:56;;;;;;;60.10;4.43;;;;;;;;;;5051343;28;20456;-68
2022/10/05 03:36:27;;;;;;;58.80;3.10;;;;;;;;;;5050590;28;20229;-68
2022/10/05 03:38:59;;;;;;;58.27;3.33;;;;;;;;;;5051072;28;20229;-68
2022/10/05 03:41:31;;;;;;;63.58;4.43;;;;;;;;;;5051198;28;20448;-68
2022/10/05 03:44:05;;;;;;;59.57;4.10;;;;;;;;;;5051087;28;20296;-68
2022/10/05 03:46:39;;;;;;;59.00;3.77;;;;;;;;;;5051063;28;20476;-68
2022/10/05 03:49:09;;;;;;;59.47;3.75;;;;;;;;;;5050237;28;20440;-68
2022/10/05 03:51:38;;;;;;;63.53;3.40;;;;;;;;;;5051189;28;20206;-68
2022/10/05 03:54:08;;;;;;;61.30;3.87;;;;;;;;;;5051025;28;20965;-68
2022/10/05 03:56:38;;;;;;;59.30;4.10;;;;;;;;;;5054547;28;20464;-68
2022/10/05 03:59:09;;;;;;;59.07;3.40;;;;;;;;;;5053670;28;21033;-68
2022/10/05 04:01:39;;;;;;;59.97;3.90;;;;;;;;;;5055000;28;20451;-68
2022/10/05 04:04:07;;;;;;;58.97;3.50;;;;;;;;;;5054648;28;20671;-68
2022/10/05 04:06:36;;;;;;;60.03;3.67;;;;;;;;;;5054769;28;20478;-68
2022/10/05 04:09:04;;;;;;;60.10;4.15;;;;;;;;;;5054129;28;20448;-68
2022/10/05 04:11:35;;;;;;;58.80;3.47;;;;;;;;;;5053734;28;20229;-68
2022/10/05 04:14:05;;;;;;;59.10;3.00;;;;;;;;;;5054626;28;20478;-68
2022/10/05 04:16:35;;;;;;;58.65;3.40;;;;;;;;;;5054247;28;21003;-68
2022/10/05 04:19:06;;;;;;;59.77;3.57;;;;;;;;;;5053926;28;20222;-68
2022/10/05 04:21:35;;;;;;;60.60;3.10;;;;;;;;;;5053897;28;20509;-68
2022/10/05 04:24:05;;;;;;;58.28;2.90;;;;;;;;;;5054228;28;20798;-68
2022/10/05 04:26:35;;;;;;;58.97;3.10;;;;;;;;;;5054290;28;20597;-68
2022/10/05 04:29:06;;;;;;;58.60;3.73;;;;;;;;;;5053814;28;21023;-68
2022/10/05 04:31:41;;;;;;;59.70;3.60;;;;;;;;;;5054093;28;20454;-68
2022/10/05 04:34:16;;;;;;;59.38;3.58;;;;;;;;;;5053292;28;20456;-68
2022/10/05 04:36:46;;;;;;;58.93;3.67;;;;;;;;;;5054144;28;20228;-68
2022/10/05 04:39:19;;;;;;;59.58;4.53;;;;;;;;;;5053604;28;20529;-68
2022/10/05 04:41:54;;;;;;;58.90;3.40;;;;;;;;;;5054076;28;20209;-68
2022/10/05 04:44:27;;;;;;;59.67;4.63;;;;;;;;;;5053473;28;20456;-68
2022/10/05 04:47:04;;;;;;;58.50;3.30;;;;;;;;;;5053507;28;20209;-68
2022/10/05 04:49:46;;;;;;;58.90;3.50;;;;;;;;;;5053456;28;20444;-68
2022/10/05 04:52:15;;;;;;;59.93;3.13;;;;;;;;;;5053773;28;20451;-68
2022/10/05 04:54:47;;;;;;;58.37;3.60;;;;;;;;;;5053626;28;20472;-68
2022/10/05 04:57:18;;;;;;;58.60;3.25;;;;;;;;;;5053149;28;20455;-68
2022/10/05 04:59:58;;;;;;;58.60;3.43;;;;;;;;;;5053468;28;20250;-68
2022/10/05 05:02:27;;;;;;;58.07;3.93;;;;;;;;;;5053652;28;20452;-68
2022/10/05 05:05:06;;;;;;;59.95;3.85;;;;;;;;;;5053438;28;20469;-68
2022/10/05 05:07:41;;;;;;;57.53;2.93;;;;;;;;;;5052458;28;20688;-68
2022/10/05 05:10:25;;;;;;;58.13;3.00;;;;;;;;;;5052898;28;20470;-68
2022/10/05 05:12:57;;;;;;;59.10;3.90;;;;;;;;;;5053407;28;20454;-68
2022/10/05 05:15:33;;;;;;;58.78;3.67;;;;;;;;;;5053279;28;20987;-68
2022/10/05 05:18:24;;;;;;;59.70;4.55;;;;;;;;;;5053295;28;20212;-68
2022/10/05 05:20:57;;;;;;;58.80;4.63;;;;;;;;;;5052362;28;20784;-68
2022/10/05 05:23:28;;;;;;;58.10;2.90;;;;;;;;;;5053255;28;20448;-68
2022/10/05 05:25:58;;;;;;;62.57;3.47;;;;;;;;;;5053021;28;20471;-68
2022/10/05 05:28:30;;;;;;;58.47;3.80;;;;;;;;;;5053222;28;20452;-68
2022/10/05 05:31:00;;;;;;;60.43;3.63;;;;;;;;;;5052457;28;20455;-68
2022/10/05 05:33:35;;;;;;;58.80;3.30;;;;;;;;;;5052799;28;20460;-68
2022/10/05 05:36:10;;;;;;;58.93;3.77;;;;;;;;;;5052965;28;20498;-68
2022/10/05 05:38:39;;;;;;;60.57;5.17;;;;;;;;;;5052386;28;20487;-68
2022/10/05 05:41:10;;;;;;;59.20;4.67;;;;;;;;;;5052862;28;20444;-68
2022/10/05 05:43:47;;;;;;;58.50;3.70;;;;;;;;;;5052149;28;20831;-68
2022/10/05 05:46:16;;;;;;;58.47;3.33;;;;;;;;;;5052747;28;20229;-68
2022/10/05 05:48:44;;;;;;;58.27;3.00;;;;;;;;;;5052480;28;20448;-68
2022/10/05 05:51:14;;;;;;;59.28;3.42;;;;;;;;;;5052542;28;20452;-68
2022/10/05 05:53:44;;;;;;;60.63;4.20;;;;;;;;;;5052454;28;20205;-68
2022/10/05 05:56:12;;;;;;;58.90;3.60;;;;;;;;;;5052292;28;20503;-68
2022/10/05 05:58:44;;;;;;;58.67;3.30;;;;;;;;;;5052155;28;20487;-68
2022/10/05 06:01:13;;;;;;;58.88;3.45;;;;;;;;;;5052496;28;20467;-68
2022/10/05 06:03:41;;;;;;;58.60;3.50;;;;;;;;;;5052351;28;20205;-68
2022/10/05 06:06:10;;;;;;;59.27;3.63;;;;;;;;;;5051625;28;20472;-68
2022/10/05 06:08:41;;;;;;;59.88;4.35;;;;;;;;;;5052146;28;20446;-68
2022/10/05 06:11:11;;;;;;;60.10;4.60;;;;;;;;;;5052276;28;20296;-68
2022/10/05 06:13:39;;;;;;;59.40;4.70;;;;;;;;;;5052277;28;20452;-68
2022/10/05 06:16:11;;;;;;;57.97;2.90;;;;;;;;;;5051965;28;20491;-68
2022/10/05 06:18:40;;;;;;;58.70;3.20;;;;;;;;;;5050459;28;20491;-68
2022/10/05 06:21:09;;;;;;;58.70;3.30;;;;;;;;;;5052016;28;20448;-68
2022/10/05 06:23:39;;;;;;;60.73;4.43;;;;;;;;;;5052086;28;20667;-68
2022/10/05 06:26:15;;;;;;;60.20;3.63;;;;;;;;;;5052047;28;20471;-68
2022/10/05 06:28:42;;;;;;;59.00;3.90;;;;;;;;;;5050869;28;20440;-68
2022/10/05 06:31:16;;;;;;;60.23;4.27;;;;;;;;;;5052159;28;20448;-68
2022/10/05 06:33:50;;;;;;;59.60;4.33;;;;;;;;;;5051754;28;20468;-68
2022/10/05 06:36:35;;;;;;;59.28;4.22;;;;;;;;;;5051891;28;20476;-68
2022/10/05 06:39:18;;;;;;;60.10;4.87;;;;;;;;;;5051250;28;20225;-68
2022/10/05 06:41:56;;;;;;;58.97;3.53;;;;;;;;;;5051490;28;20474;-68
2022/10/05 06:44:26;;;;;;;59.00;3.37;;;;;;;;;;5052133;28;20444;-68
2022/10/05 06:46:57;;;;;;;58.27;3.53;;;;;;;;;;5051778;28;20456;-68
2022/10/05 06:49:26;;;;;;;58.77;3.53;;;;;;;;;;5051286;28;20958;-68
2022/10/05 06:51:56;;;;;;;58.70;4.20;;;;;;;;;;5050964;28;20456;-68
2022/10/05 06:54:40;;;;;;;58.90;3.77;;;;;;;;;;5051471;28;20452;-68
2022/10/05 06:57:13;;;;;;;57.97;3.00;;;;;;;;;;5051959;28;20448;-68
2022/10/05 06:59:43;;;;;;;60.40;4.70;;;;;;;;;;5051177;28;20488;-68
2022/10/05 07:02:15;;;;;;;58.60;4.00;;;;;;;;;;5051643;28;20460;-68
2022/10/05 07:04:51;;;;;;;58.70;3.20;;;;;;;;;;5050963;28;20555;-68
2022/10/05 07:07:23;;;;;;;58.50;3.43;;;;;;;;;;5051831;28;20454;-68
2022/10/05 07:09:57;;;;;;;58.73;3.80;;;;;;;;;;5051230;28;20449;-68
2022/10/05 07:12:33;;;;;;;58.87;3.50;;;;;;;;;;5051354;28;20466;-68
2022/10/05 07:15:14;;;;;;;58.27;2.83;;;;;;;;;;5050872;28;20472;-67
2022/10/05 07:17:45;;;;;;;59.03;3.70;;;;;;;;;;5051509;28;20455;-67
2022/10/05 07:20:16;;;;;;;58.10;3.10;;;;;;;;;;5051089;28;20484;-67
2022/10/05 07:22:51;;;;;;;59.67;4.70;;;;;;;;;;5051283;28;20945;-67
2022/10/05 07:25:20;;;;;;;59.17;4.10;;;;;;;;;;5051031;28;20466;-67
2022/10/05 07:27:51;;;;;;;59.77;4.37;;;;;;;;;;5050849;28;20967;-67
2022/10/05 07:30:18;;;;;;;60.10;4.37;;;;;;;;;;5052854;28;20452;-67
2022/10/05 07:32:50;;;;;;;59.97;3.30;;;;;;;;;;5055322;28;20542;-67
2022/10/05 07:38:05;;;;;;;59.10;4.27;;;;;;;;;;5054410;28;20603;-67
2022/10/05 07:40:36;;;;;;;59.47;4.20;;;;;;;;;;5054892;28;20499;-67
2022/10/05 07:43:13;;;;;;;58.87;3.67;;;;;;;;;;5055020;28;20547;-67
2022/10/05 07:45:45;;;;;;;59.50;4.03;;;;;;;;;;5054929;28;20464;-67
2022/10/05 07:48:15;;;;;;;59.10;3.80;;;;;;;;;;5054859;28;20448;-67
2022/10/05 07:50:47;;;;;;;58.37;3.57;;;;;;;;;;5054282;28;20457;-67
2022/10/05 07:53:16;;;;;;;58.60;3.40;;;;;;;;;;5055022;28;20916;-67
2022/10/05 07:55:48;;;;;;;59.37;3.50;;;;;;;;;;5054717;28;20472;-67
2022/10/05 07:58:21;;;;;;;58.87;3.50;;;;;;;;;;5054545;28;20452;-67
2022/10/05 08:00:58;;;;;;;59.23;3.80;;;;;;;;;;5053976;28;20480;-67
2022/10/05 08:03:30;;;;;;;59.27;4.00;;;;;;;;;;5054812;28;20456;-67
2022/10/05 08:05:58;;;;;;;61.80;3.37;;;;;;;;;;5054542;28;20508;-67
2022/10/05 08:08:28;;;;;;;59.67;4.27;;;;;;;;;;5054418;28;20458;-67
2022/10/05 08:11:00;;;;;;;59.27;3.90;;;;;;;;;;5054357;28;20444;-67
2022/10/05 08:13:32;;;;;;;60.20;4.20;;;;;;;;;;5054178;28;20458;-66
2022/10/05 08:16:01;;;;;;;58.57;3.70;;;;;;;;;;5054665;28;20551;-67
2022/10/05 08:18:38;;;;;;;58.53;3.47;;;;;;;;;;5054442;28;20448;-67
2022/10/05 08:21:10;;;;;;;59.90;4.73;;;;;;;;;;5054057;28;20484;-67
2022/10/05 08:23:39;;;;;;;59.37;3.70;;;;;;;;;;5054118;28;20460;-67
2022/10/05 08:26:10;;;;;;;60.47;4.10;;;;;;;;;;5054291;28;20491;-66
2022/10/05 08:28:41;;;;;;;61.63;4.10;;;;;;;;;;5053964;28;20455;-67
2022/10/05 08:31:14;;;;;;;59.53;3.40;;;;;;;;;;5054215;28;20448;-66
2022/10/05 08:33:46;;;;;;;58.87;3.50;;;;;;;;;;5054010;28;20487;-66
2022/10/05 08:36:15;;;;;;;59.27;4.07;;;;;;;;;;5053278;28;20476;-67
2022/10/05 08:38:42;;;;;;;60.47;3.90;;;;;;;;;;5053709;28;20948;-67
2022/10/05 08:41:24;;;;;;;61.50;4.60;;;;;;;;;;5052952;28;20484;-67
2022/10/05 08:44:25;;;;;;;59.60;3.70;;;;;;;;;;5053948;28;20453;-67
2022/10/05 08:47:07;;;;;;;60.20;3.87;;;;;;;;;;4991477;28;20972;-67
2022/10/05 08:49:52;;;;;;;58.70;3.37;;;;;;;;;;4991921;28;20478;-67
2022/10/05 08:52:27;;;;;;;59.67;3.63;;;;;;;;;;5033110;28;20450;-67
2022/10/05 08:55:18;;;;;;;59.67;4.70;;;;;;;;;;5053748;28;20473;-67
2022/10/05 08:57:55;;;;;;;59.87;3.83;;;;;;;;;;5053300;28;20465;-67
2022/10/05 09:00:23;;;;;;;59.90;4.33;;;;;;;;;;5053201;28;20484;-67
2022/10/05 09:02:59;;;;;;;59.80;4.23;;;;;;;;;;5053483;28;20546;-67
2022/10/05 09:05:38;;;;;;;61.47;4.30;;;;;;;;;;5053772;28;20479;-67
2022/10/05 09:08:20;;;;;;;62.83;3.83;;;;;;;;;;5053566;28;20805;-67
2022/10/05 09:11:05;;;;;;;62.07;4.17;;;;;;;;;;5053223;28;20524;-67
2022/10/05 09:13:45;;;;;;;61.50;4.13;;;;;;;;;;5053403;28;20450;-67
2022/10/05 09:16:25;;;;;;;58.97;3.70;;;;;;;;;;5053424;28;20848;-67
2022/10/05 09:19:07;;;;;;;58.77;4.27;;;;;;;;;;5052769;28;20446;-67
2022/10/05 09:21:41;;;;;;;59.27;4.00;;;;;;;;;;5053319;28;21002;-68
2022/10/05 09:24:26;;;;;;;61.20;3.47;;;;;;;;;;5053338;28;20535;-67
2022/10/05 09:27:05;;;;;;;58.60;3.67;;;;;;;;;;5053189;28;20453;-68
2022/10/05 09:29:56;;;;;;;58.67;3.40;;;;;;;;;;5052719;28;20833;-68
2022/10/05 09:32:36;;;;;;;59.10;3.60;;;;;;;;;;5037221;28;20466;-68
2022/10/05 09:35:10;;;;;;;60.17;3.10;;;;;;;;;;5052890;28;20474;-68
2022/10/05 09:37:53;;;;;;;59.37;3.50;;;;;;;;;;5052971;28;20966;-68
2022/10/05 09:40:34;;;;;;;58.07;2.90;;;;;;;;;;5040050;28;21012;-68
2022/10/05 09:43:25;;;;;;;59.47;4.07;;;;;;;;;;5052065;28;20458;-68
2022/10/05 09:46:01;;;;;;;59.50;3.37;;;;;;;;;;5037489;28;20476;-68
2022/10/05 09:48:49;;;;;;;58.17;3.20;;;;;;;;;;5052455;28;20439;-68
2022/10/05 09:51:50;;;;;;;58.27;3.50;;;;;;;;;;5027479;28;20449;-68
2022/10/05 09:54:34;;;;;;;58.80;3.03;;;;;;;;;;5051694;28;20509;-68
2022/10/05 09:57:15;;;;;;;58.90;3.10;;;;;;;;;;5052749;28;20428;-68
2022/10/05 10:00:01;;;;;;;59.70;3.67;;;;;;;;;;5052232;28;20510;-68
2022/10/05 10:02:37;;;;;;;58.77;3.10;;;;;;;;;;5052644;28;20455;-68
2022/10/05 10:05:09;;;;;;;58.40;2.80;;;;;;;;;;5051844;28;20474;-68
2022/10/05 10:07:49;;;;;;;57.87;2.53;;;;;;;;;;5052293;28;20444;-68
2022/10/05 10:10:28;;;;;;;58.40;2.60;;;;;;;;;;5052103;28;20452;-69
2022/10/05 10:13:08;;;;;;;58.40;2.97;;;;;;;;;;5052356;28;20502;-68
2022/10/05 10:15:44;;;;;;;58.30;2.60;;;;;;;;;;5052106;28;20468;-68
2022/10/05 10:18:26;;;;;;;57.90;2.40;;;;;;;;;;5051636;28;20448;-68
2022/10/05 10:21:06;;;;;;;58.27;2.80;;;;;;;;;;5049744;28;20519;-68
2022/10/05 10:23:45;;;;;;;57.77;2.27;;;;;;;;;;5052140;28;20463;-68
2022/10/05 10:26:29;;;;;;;57.77;2.47;;;;;;;;;;5051926;28;20482;-68
2022/10/05 10:29:12;;;;;;;57.90;2.30;;;;;;;;;;5018852;28;20456;-68
2022/10/05 10:31:49;;;;;;;59.40;2.60;;;;;;;;;;5052082;28;20808;-68
2022/10/05 10:34:34;;;;;;;58.40;2.53;;;;;;;;;;5051749;28;20452;-68
2022/10/05 10:37:10;;;;;;;57.53;2.47;;;;;;;;;;5042236;28;20468;-69
2022/10/05 10:39:44;;;;;;;57.90;2.30;;;;;;;;;;5051064;28;20448;-69
2022/10/05 10:42:19;;;;;;;57.70;2.60;;;;;;;;;;5051638;28;20448;-69
2022/10/05 10:44:58;;;;;;;58.00;2.70;;;;;;;;;;5051525;28;20840;-68
2022/10/05 10:47:44;;;;;;;59.53;2.80;;;;;;;;;;5051834;28;20456;-66
2022/10/05 10:50:32;;;;;;;57.97;2.37;;;;;;;;;;5051708;28;20452;-67
2022/10/05 10:53:05;;;;;;;57.50;2.23;;;;;;;;;;5025886;28;20798;-68
2022/10/05 10:55:38;;;;;;;57.60;2.23;;;;;;;;;;5051580;28;20522;-69
2022/10/05 10:58:17;;;;;;;57.80;2.87;;;;;;;;;;5051755;28;20448;-69
2022/10/05 11:00:53;;;;;;;57.93;2.27;;;;;;;;;;5051301;28;21033;-69
2022/10/05 11:03:34;;;;;;;57.50;2.33;;;;;;;;;;5050862;28;20499;-66
2022/10/05 11:06:17;;;;;;;57.30;2.23;;;;;;;;;;5057727;28;20472;-66
2022/10/05 11:08:56;;;;;;;57.80;2.10;;;;;;;;;;5056030;28;20463;-69
2022/10/05 11:11:41;;;;;;;57.60;2.30;;;;;;;;;;5058091;28;20447;-69
2022/10/05 11:14:19;;;;;;;58.97;2.20;;;;;;;;;;5057695;28;20448;-69
2022/10/05 11:17:04;;;;;;;57.83;2.43;;;;;;;;;;5058072;28;20517;-69
2022/10/05 11:19:45;;;;;;;57.30;2.10;;;;;;;;;;5057774;28;20451;-69
2022/10/05 11:22:19;;;;;;;58.00;2.00;;;;;;;;;;5057811;28;20446;-69
2022/10/05 11:25:04;;;;;;;57.27;1.93;;;;;;;;;;5057869;28;20468;-69
2022/10/05 11:27:47;;;;;;;57.40;2.30;;;;;;;;;;5047434;28;20452;-69
2022/10/05 11:30:21;;;;;;;57.10;2.20;;;;;;;;;;5057735;28;20450;-66
2022/10/05 11:33:05;;;;;;;57.07;2.13;;;;;;;;;;5057146;28;20451;-66
2022/10/05 11:35:55;;;;;;;57.23;2.10;;;;;;;;;;5058133;28;20876;-69
2022/10/05 11:38:31;;;;;;;56.87;2.10;;;;;;;;;;5057818;28;20452;-69
2022/10/05 11:41:09;;;;;;;57.27;2.00;;;;;;;;;;5057709;28;20489;-69
2022/10/05 11:43:54;;;;;;;57.37;2.10;;;;;;;;;;5057328;28;20478;-69
2022/10/05 11:46:24;;;;;;;57.60;1.90;;;;;;;;;;5057615;28;20471;-69
2022/10/05 11:49:15;;;;;;;57.60;2.17;;;;;;;;;;5057661;28;20439;-69
2022/10/05 11:51:48;;;;;;;57.17;1.93;;;;;;;;;;5058009;28;20448;-69
2022/10/05 11:54:30;;;;;;;61.27;2.37;;;;;;;;;;5057634;28;20450;-69
2022/10/05 11:57:00;;;;;;;57.70;2.30;;;;;;;;;;5057532;28;20448;-69
2022/10/05 11:59:30;;;;;;;57.37;2.30;;;;;;;;;;5057732;28;20440;-67
2022/10/05 12:01:59;;;;;;;57.53;2.30;;;;;;;;;;5057535;28;20553;-67
2022/10/05 12:04:31;;;;;;;57.03;1.97;;;;;;;;;;5057833;28;20711;-66
2022/10/05 12:07:05;;;;;;;57.17;2.10;;;;;;;;;;5057027;28;20960;-67
2022/10/05 12:10:12;;;;;;;57.40;2.30;;;;;;;;;;5057330;28;20454;-67
2022/10/05 12:12:34;;;;;;;57.43;2.30;;;;;;;;;;5057431;28;20440;-67
2022/10/05 12:15:04;;;;;;;57.30;2.07;;;;;;;;;;5057544;28;20563;-66
2022/10/05 12:17:36;;;;;;;57.57;2.30;;;;;;;;;;5054532;28;20460;-67
2022/10/05 12:20:08;;;;;;;57.80;2.30;;;;;;;;;;5053623;28;20456;-67
2022/10/05 12:22:38;;;;;;;57.37;2.30;;;;;;;;;;5054238;28;20440;-67
2022/10/05 12:25:17;;;;;;;57.07;2.20;;;;;;;;;;5054225;28;20464;-67
2022/10/05 12:27:46;;;;;;;57.07;2.20;;;;;;;;;;5054432;28;20539;-67
2022/10/05 12:30:15;;;;;;;57.37;2.33;;;;;;;;;;5053171;28;20449;-66
2022/10/05 12:32:49;;;;;;;56.90;2.23;;;;;;;;;;5054135;28;20452;-66
2022/10/05 12:35:21;;;;;;;57.23;2.10;;;;;;;;;;5053853;28;20480;-66
2022/10/05 12:37:53;;;;;;;57.27;2.20;;;;;;;;;;5054052;28;20454;-67
2022/10/05 12:40:28;;;;;;;57.43;2.30;;;;;;;;;;5053693;28;20452;-66
2022/10/05 12:43:03;;;;;;;57.10;1.93;;;;;;;;;;5053571;28;20454;-66
2022/10/05 12:45:34;;;;;;;57.10;2.00;;;;;;;;;;5053769;28;20471;-67
2022/10/05 12:48:09;;;;;;;57.20;2.10;;;;;;;;;;5054076;28;20455;-66
2022/10/05 12:50:40;;;;;;;57.10;2.00;;;;;;;;;;5053881;28;20448;-67
2022/10/05 12:53:18;;;;;;;57.10;1.97;;;;;;;;;;5053150;28;20467;-67
2022/10/05 12:55:49;;;;;;;56.83;2.07;;;;;;;;;;5053718;28;20526;-67
2022/10/05 12:58:21;;;;;;;57.30;2.40;;;;;;;;;;5053509;28;20965;-67
2022/10/05 13:00:52;;;;;;;57.03;2.00;;;;;;;;;;5053524;28;20506;-67
2022/10/05 13:03:24;;;;;;;57.07;1.87;;;;;;;;;;5053629;28;20444;-66
2022/10/05 13:05:57;;;;;;;57.17;2.07;;;;;;;;;;5052976;28;20519;-67
2022/10/05 13:08:29;;;;;;;57.07;2.17;;;;;;;;;;5053378;28;20456;-66
2022/10/05 13:11:02;;;;;;;57.57;2.40;;;;;;;;;;5053561;28;20451;-69
2022/10/05 13:13:37;;;;;;;57.50;2.00;;;;;;;;;;5053367;28;20452;-69
2022/10/05 13:16:09;;;;;;;57.50;1.87;;;;;;;;;;5052518;28;20474;-68
2022/10/05 13:18:43;;;;;;;57.90;2.90;;;;;;;;;;5052941;28;20479;-66
2022/10/05 13:21:14;;;;;;;58.83;2.53;;;;;;;;;;5052987;28;20534;-67
2022/10/05 13:23:45;;;;;;;57.90;2.43;;;;;;;;;;5053226;28;20452;-67
2022/10/05 13:26:14;;;;;;;57.17;1.97;;;;;;;;;;5053118;28;20475;-68
2022/10/05 13:28:43;;;;;;;57.07;1.90;;;;;;;;;;5052271;28;20462;-67
2022/10/05 13:31:13;;;;;;;60.90;2.00;;;;;;;;;;5053115;28;20823;-69
2022/10/05 13:33:50;;;;;;;56.97;1.70;;;;;;;;;;5052138;28;20463;-69
2022/10/05 13:36:22;;;;;;;58.90;2.70;;;;;;;;;;5053089;28;20491;-69
2022/10/05 13:38:55;;;;;;;57.30;2.37;;;;;;;;;;5052645;28;20456;-69
2022/10/05 13:41:29;;;;;;;57.10;1.70;;;;;;;;;;5052841;28;20484;-69
2022/10/05 13:44:01;;;;;;;57.03;1.80;;;;;;;;;;5052741;28;20466;-69
2022/10/05 13:46:32;;;;;;;57.40;2.20;;;;;;;;;;5052854;28;21003;-69
2022/10/05 13:49:04;;;;;;;57.03;1.70;;;;;;;;;;5051829;28;20444;-69
2022/10/05 13:51:37;;;;;;;57.10;2.00;;;;;;;;;;5052673;28;20448;-69
2022/10/05 13:54:06;;;;;;;57.37;1.90;;;;;;;;;;5052666;28;20456;-69
2022/10/05 13:56:35;;;;;;;57.00;1.70;;;;;;;;;;5052404;28;20480;-69
2022/10/05 13:59:10;;;;;;;57.30;1.90;;;;;;;;;;5052246;28;20463;-69
2022/10/05 14:01:41;;;;;;;56.97;1.80;;;;;;;;;;5052226;28;20822;-69
2022/10/05 14:04:15;;;;;;;57.13;1.77;;;;;;;;;;5052584;28;20459;-69
2022/10/05 14:06:44;;;;;;;57.20;1.93;;;;;;;;;;5052297;28;20467;-69
2022/10/05 14:09:14;;;;;;;57.37;1.87;;;;;;;;;;5052216;28;20444;-69
2022/10/05 14:11:48;;;;;;;57.07;1.77;;;;;;;;;;5051813;28;20455;-69
2022/10/05 14:14:17;;;;;;;58.37;2.00;;;;;;;;;;5052261;28;20967;-69
2022/10/05 14:16:48;;;;;;;57.07;1.77;;;;;;;;;;5052532;28;20844;-70
2022/10/05 14:19:20;;;;;;;57.00;1.87;;;;;;;;;;5051816;28;20758;-69
2022/10/05 14:21:53;;;;;;;57.80;1.73;;;;;;;;;;5052180;28;20484;-69
2022/10/05 14:24:21;;;;;;;57.43;2.13;;;;;;;;;;5051690;28;20480;-69
2022/10/05 14:26:51;;;;;;;57.13;1.80;;;;;;;;;;5052053;28;20523;-69
2022/10/05 14:29:19;;;;;;;57.30;2.10;;;;;;;;;;5051733;28;20448;-69
2022/10/05 14:31:51;;;;;;;57.17;1.90;;;;;;;;;;5051950;28;20462;-69
2022/10/05 14:34:35;;;;;;;57.07;1.90;;;;;;;;;;5051269;28;20464;-69
2022/10/05 14:37:17;;;;;;;57.23;1.83;;;;;;;;;;5052082;28;20550;-69
2022/10/05 14:39:46;;;;;;;57.30;2.00;;;;;;;;;;5050729;28;20821;-69
2022/10/05 14:42:15;;;;;;;57.40;2.10;;;;;;;;;;5051696;28;20510;-65
2022/10/05 14:44:42;;;;;;;57.40;2.30;;;;;;;;;;5051816;28;20475;-67
2022/10/05 14:47:18;;;;;;;57.70;2.30;;;;;;;;;;5050944;28;20967;-70
2022/10/05 14:50:09;;;;;;;57.40;2.23;;;;;;;;;;5051552;28;20455;-69
2022/10/05 14:52:38;;;;;;;57.77;2.20;;;;;;;;;;5051553;28;20448;-70
2022/10/05 14:55:09;;;;;;;57.87;2.50;;;;;;;;;;5051550;28;20509;-70
2022/10/05 14:57:39;;;;;;;57.50;2.30;;;;;;;;;;5050781;28;20459;-70
2022/10/05 15:00:11;;;;;;;57.40;2.03;;;;;;;;;;5051314;28;20833;-70
2022/10/05 15:02:47;;;;;;;57.40;2.20;;;;;;;;;;5051362;28;20956;-70
2022/10/05 15:05:16;;;;;;;57.83;2.60;;;;;;;;;;5051370;28;20480;-70
2022/10/05 15:07:47;;;;;;;57.40;1.90;;;;;;;;;;5051698;28;20440;-70
2022/10/05 15:10:25;;;;;;;57.47;2.20;;;;;;;;;;5050385;28;20916;-70
2022/10/05 15:12:54;;;;;;;57.73;2.60;;;;;;;;;;5051421;28;20452;-67